Time;durP1;ratioP1;P1;durP2;ratioP2;P2;SDS_P1;SDS_P2;PMS_P1;PMS_P2;Temp;Humidity;BMP_temperature;BMP_pressure;BME280_temperature;BME280_humidity;BME280_pressure;Samples;Min_cycle;Max_cycle;Signal;HPM_P1;HPM_P2
2022/06/12 00:00:34;;;;;;;;;5.33;1.67;;;;;20.73;41.77;102154.75;5064158;28;45632;-61
2022/06/12 00:03:01;;;;;;;;;1.00;1.00;;;;;20.74;41.44;102154.66;5065083;28;45498;-61
2022/06/12 00:05:31;;;;;;;;;1.00;1.00;;;;;20.77;41.61;102148.16;5064288;28;45857;-61
2022/06/12 00:07:57;;;;;;;;;3.00;1.00;;;;;20.80;41.63;102156.03;5065041;28;46142;-61
2022/06/12 00:10:22;;;;;;;;;1.33;1.33;;;;;20.75;41.61;102148.25;5065801;28;45552;-61
2022/06/12 00:12:48;;;;;;;;;1.33;1.00;;;;;20.72;42.04;102148.50;5066990;28;46740;-61
2022/06/12 00:15:17;;;;;;;;;4.00;1.00;;;;;20.73;42.33;102143.94;5067029;28;45434;-61
2022/06/12 00:17:43;;;;;;;;;0.33;0.33;;;;;20.75;42.30;102148.25;5061241;28;45749;-60
2022/06/12 00:20:11;;;;;;;;;3.00;1.67;;;;;20.74;42.35;102153.78;5055410;28;45312;-61
2022/06/12 00:22:37;;;;;;;;;1.00;1.00;;;;;20.70;42.28;102146.88;5069264;28;45582;-61
2022/06/12 00:25:04;;;;;;;;;2.67;1.00;;;;;20.69;41.91;102153.22;5068379;28;65802;-61
2022/06/12 00:27:29;;;;;;;;;1.00;1.00;;;;;20.69;42.34;102155.91;5065106;28;46298;-61
2022/06/12 00:29:56;;;;;;;;;0.00;0.00;;;;;20.69;42.20;102145.97;5065490;28;68952;-61
2022/06/12 00:32:21;;;;;;;;;1.00;1.00;;;;;20.70;42.34;102152.28;5065583;28;45486;-61
2022/06/12 00:34:51;;;;;;;;;0.67;0.67;;;;;20.71;42.31;102143.19;5064861;28;55197;-61
2022/06/12 00:37:19;;;;;;;;;1.00;1.00;;;;;20.66;42.80;102154.28;5067233;28;46237;-61
2022/06/12 00:39:47;;;;;;;;;4.33;1.00;;;;;20.65;42.87;102156.16;5068092;28;45519;-61
2022/06/12 00:42:40;;;;;;;;;6.33;3.00;;;;;20.64;42.57;102156.25;5054079;28;45265;-61
2022/06/12 00:45:46;;;;;;;;;4.67;1.00;;;;;20.61;42.80;102156.47;5062757;28;45466;-61
2022/06/12 00:48:15;;;;;;;;;3.67;3.00;;;;;20.64;42.51;102158.97;5057479;28;47169;-61
2022/06/12 00:50:45;;;;;;;;;2.67;2.33;;;;;20.61;43.20;102162.75;5061902;28;45604;-61
2022/06/12 00:53:15;;;;;;;;;2.00;2.00;;;;;20.59;43.23;102151.16;5053059;28;45403;-61
2022/06/12 00:55:44;;;;;;;;;3.00;3.00;;;;;20.58;43.25;102154.84;5039507;28;45518;-61
2022/06/12 00:58:17;;;;;;;;;2.00;2.00;;;;;20.53;42.91;102151.59;5063831;28;45501;-61
2022/06/12 01:00:42;;;;;;;;;3.00;2.00;;;;;20.45;43.00;102162.09;5061271;28;45537;-61
2022/06/12 01:03:09;;;;;;;;;2.00;2.00;;;;;20.44;43.72;102145.03;5052720;28;45490;-61
2022/06/12 01:08:20;;;;;;;;;2.00;2.00;;;;;20.40;43.15;102154.34;5066236;28;45701;-61
2022/06/12 01:10:49;;;;;;;;;3.00;2.00;;;;;20.38;43.69;102158.13;5059879;28;45342;-61
2022/06/12 01:13:24;;;;;;;;;1.67;1.00;;;;;20.33;43.89;102167.38;5042718;28;45767;-61
2022/06/12 01:15:52;;;;;;;;;5.00;1.00;;;;;20.19;44.88;102163.94;5062167;28;45301;-61
2022/06/12 01:18:21;;;;;;;;;2.00;1.33;;;;;20.08;43.91;102165.53;5065669;28;46274;-61
2022/06/12 01:20:57;;;;;;;;;1.00;1.00;;;;;20.08;44.44;102167.38;5063855;28;45426;-61
2022/06/12 01:23:30;;;;;;;;;1.00;1.00;;;;;20.05;44.22;102167.56;5060143;28;45407;-61
2022/06/12 01:26:19;;;;;;;;;1.00;0.00;;;;;20.03;44.66;102162.28;5047655;28;45520;-61
2022/06/12 01:28:54;;;;;;;;;1.00;1.00;;;;;19.98;44.87;102165.28;5065590;28;46318;-61
2022/06/12 01:31:41;;;;;;;;;1.00;1.00;;;;;19.96;44.85;102169.09;5068334;28;45455;-61
2022/06/12 01:34:09;;;;;;;;;7.00;2.00;;;;;19.99;44.90;102167.03;5060218;28;45311;-61
2022/06/12 01:36:49;;;;;;;;;1.33;1.33;;;;;20.05;44.54;102167.56;5064062;28;45438;-61
2022/06/12 01:39:37;;;;;;;;;3.33;2.33;;;;;20.07;44.89;102162.94;5053239;28;46883;-61
2022/06/12 01:42:25;;;;;;;;;2.33;1.00;;;;;20.00;44.76;102166.06;5063393;28;45536;-61
2022/06/12 01:44:59;;;;;;;;;2.33;2.00;;;;;19.96;45.22;102166.41;5055213;28;45408;-62
2022/06/12 01:47:27;;;;;;;;;4.00;2.00;;;;;19.91;45.17;102168.53;5053899;28;45485;-62
2022/06/12 01:50:17;;;;;;;;;3.00;1.67;;;;;19.82;45.16;102162.78;5064212;28;45466;-62
2022/06/12 01:52:53;;;;;;;;;1.67;0.33;;;;;19.77;45.43;102172.13;5063930;28;46692;-62
2022/06/12 01:55:36;;;;;;;;;3.33;2.00;;;;;19.77;45.07;102177.53;5061130;28;45427;-62
2022/06/12 01:58:22;;;;;;;;;2.67;1.00;;;;;19.75;45.01;102180.34;5062817;28;45573;-62
2022/06/12 02:00:52;;;;;;;;;1.67;1.67;;;;;19.70;45.08;102181.59;5039483;28;46301;-62
2022/06/12 02:03:28;;;;;;;;;2.00;1.33;;;;;19.66;45.43;102175.56;5033057;28;45527;-62
2022/06/12 02:06:05;;;;;;;;;1.00;1.00;;;;;19.65;45.49;102174.69;5042063;28;45447;-62
2022/06/12 02:08:40;;;;;;;;;1.00;1.00;;;;;19.65;45.36;102173.84;5057422;28;45635;-62
2022/06/12 02:14:04;;;;;;;;;6.00;2.00;;;;;19.65;45.44;102180.09;5058032;28;45182;-62
2022/06/12 02:16:35;;;;;;;;;1.67;0.67;;;;;19.64;45.29;102183.75;5041810;28;67113;-62
2022/06/12 02:19:09;;;;;;;;;2.00;1.00;;;;;19.66;45.57;102189.06;5042420;28;45400;-62
2022/06/12 02:21:48;;;;;;;;;1.67;1.67;;;;;19.63;45.37;102182.03;5057837;28;45504;-62
2022/06/12 02:24:18;;;;;;;;;3.67;2.00;;;;;19.58;45.67;102180.59;5060450;28;45221;-62
2022/06/12 02:26:57;;;;;;;;;3.00;2.00;;;;;19.54;45.66;102179.91;5055566;28;45390;-62
2022/06/12 02:29:26;;;;;;;;;1.67;1.33;;;;;19.51;45.60;102182.84;5050916;28;45338;-62
2022/06/12 02:31:53;;;;;;;;;2.00;1.00;;;;;19.53;45.69;102190.81;5040711;28;45681;-62
2022/06/12 02:34:24;;;;;;;;;1.00;1.00;;;;;19.54;46.16;102190.72;5040796;28;45462;-62
2022/06/12 02:37:02;;;;;;;;;1.00;1.00;;;;;19.55;45.83;102189.75;5055727;28;46391;-62
2022/06/12 02:39:32;;;;;;;;;3.00;2.00;;;;;19.55;46.03;102181.66;5062025;28;45390;-62
2022/06/12 02:42:14;;;;;;;;;1.00;1.00;;;;;19.54;45.61;102185.31;5043232;28;45560;-62
2022/06/12 02:45:01;;;;;;;;;2.00;2.00;;;;;19.51;46.00;102178.28;5058645;28;45249;-62
2022/06/12 02:47:30;;;;;;;;;1.67;1.33;;;;;19.48;45.87;102177.66;5058553;28;45250;-62
2022/06/12 02:49:57;;;;;;;;;3.00;1.67;;;;;19.41;46.11;102171.81;5057467;28;45362;-62
2022/06/12 02:52:54;;;;;;;;;2.00;1.00;;;;;19.42;46.15;102183.44;5067183;28;47119;-62
2022/06/12 02:55:39;;;;;;;;;4.00;1.00;;;;;19.44;46.02;102176.13;5072677;28;45500;-62
2022/06/12 02:58:18;;;;;;;;;1.67;1.00;;;;;19.42;46.26;102176.22;5058793;28;45273;-62
2022/06/12 03:00:55;;;;;;;;;3.33;1.00;;;;;19.42;46.29;102173.50;5041175;28;45265;-62
2022/06/12 03:04:04;;;;;;;;;3.00;3.00;;;;;19.42;46.32;102181.59;5039344;28;45410;-62
2022/06/12 03:06:30;;;;;;;;;2.33;2.00;;;;;19.40;46.51;102179.97;5041411;28;45330;-62
2022/06/12 03:08:58;;;;;;;;;3.67;1.67;;;;;19.39;46.43;102181.81;5070954;28;45415;-62
2022/06/12 03:11:27;;;;;;;;;2.00;1.00;;;;;19.38;46.61;102177.38;5063955;28;45348;-62
2022/06/12 03:13:54;;;;;;;;;2.33;2.33;;;;;19.37;46.38;102185.59;5057597;28;46193;-62
2022/06/12 03:16:31;;;;;;;;;1.00;1.00;;;;;19.27;46.65;102175.41;5056677;28;45330;-62
2022/06/12 03:19:05;;;;;;;;;3.00;1.67;;;;;19.22;46.73;102177.53;5049297;28;45387;-62
2022/06/12 03:21:46;;;;;;;;;2.67;2.00;;;;;19.14;46.68;102178.03;5047810;28;45408;-62
2022/06/12 03:24:34;;;;;;;;;1.67;1.67;;;;;19.06;46.96;102182.16;5069351;28;46196;-62
2022/06/12 03:27:05;;;;;;;;;4.00;1.00;;;;;19.03;46.91;102180.53;5040817;28;45324;-62
2022/06/12 03:29:58;;;;;;;;;3.00;2.00;;;;;19.00;46.80;102178.91;5053182;28;45534;-62
2022/06/12 03:32:45;;;;;;;;;2.00;1.00;;;;;18.99;47.09;102169.09;5058208;28;45863;-62
2022/06/12 03:35:28;;;;;;;;;2.33;2.33;;;;;18.96;47.22;102177.38;5051344;28;45496;-62
2022/06/12 03:38:11;;;;;;;;;2.00;0.67;;;;;18.87;47.29;102177.94;5051829;28;45387;-62
2022/06/12 03:40:52;;;;;;;;;2.00;2.00;;;;;18.76;47.72;102181.31;5061986;28;45296;-62
2022/06/12 03:43:55;;;;;;;;;2.33;2.00;;;;;18.71;48.02;102179.84;5057419;28;45410;-62
2022/06/12 03:46:41;;;;;;;;;3.00;1.67;;;;;18.64;47.74;102176.69;5028703;28;45381;-62
2022/06/12 03:49:11;;;;;;;;;2.67;2.67;;;;;18.67;47.83;102174.66;5045706;28;45457;-62
2022/06/12 03:51:41;;;;;;;;;4.00;3.00;;;;;18.71;47.69;102178.03;5039801;28;45384;-62
2022/06/12 03:54:19;;;;;;;;;2.00;2.00;;;;;18.69;47.91;102169.19;5053073;28;45446;-62
2022/06/12 04:00:07;;;;;;;;;4.00;3.00;;;;;18.57;48.01;102178.91;5059232;28;45505;-62
2022/06/12 04:02:34;;;;;;;;;3.67;1.33;;;;;18.58;48.09;102172.56;5064628;28;45511;-62
2022/06/12 04:05:00;;;;;;;;;1.00;1.00;;;;;18.59;48.12;102166.22;5041492;28;45600;-62
2022/06/12 04:07:29;;;;;;;;;2.00;1.33;;;;;18.62;48.26;102166.00;5056841;28;46217;-62
2022/06/12 04:09:57;;;;;;;;;2.33;2.00;;;;;18.65;48.26;102156.88;5056586;28;45532;-62
2022/06/12 04:12:29;;;;;;;;;4.00;1.67;;;;;18.67;47.94;102163.03;5039759;28;45404;-62
2022/06/12 04:15:11;;;;;;;;;2.00;1.00;;;;;18.66;48.23;102169.38;5063048;28;45679;-62
2022/06/12 04:17:36;;;;;;;;;5.00;2.00;;;;;18.65;48.40;102168.50;5075911;28;46229;-62
2022/06/12 04:20:05;;;;;;;;;6.67;2.00;;;;;18.67;48.32;102169.28;5062145;28;68909;-62
2022/06/12 04:23:36;;;;;;;;;3.00;1.00;;;;;18.71;48.20;102164.56;5069366;28;45372;-62
2022/06/12 04:26:13;;;;;;;;;1.33;1.33;;;;;18.72;48.12;102160.91;4983941;28;45497;-62
2022/06/12 04:28:42;;;;;;;;;3.67;1.00;;;;;18.72;48.09;102168.13;5050494;28;47219;-62
2022/06/12 04:31:27;;;;;;;;;1.33;1.33;;;;;18.71;48.20;102167.25;5037561;28;45364;-62
2022/06/12 04:34:14;;;;;;;;;4.00;2.33;;;;;18.66;48.11;102181.00;5068587;28;45552;-62
2022/06/12 04:36:42;;;;;;;;;2.33;2.33;;;;;18.64;48.19;102182.06;5067087;28;45648;-62
2022/06/12 04:39:08;;;;;;;;;3.00;2.00;;;;;18.60;48.20;102184.09;5066793;28;45307;-62
2022/06/12 04:41:37;;;;;;;;;3.67;3.00;;;;;18.60;48.59;102177.84;5066638;28;45429;-62
2022/06/12 04:44:04;;;;;;;;;2.67;2.67;;;;;18.60;48.92;102180.53;5066304;28;47033;-62
2022/06/12 04:46:30;;;;;;;;;3.67;2.00;;;;;18.57;48.58;102184.28;5064965;28;45378;-61
2022/06/12 04:48:57;;;;;;;;;3.00;1.33;;;;;18.59;48.54;102174.28;5065058;28;46364;-62
2022/06/12 04:51:23;;;;;;;;;3.00;1.33;;;;;18.62;48.61;102184.00;5065027;28;46775;-62
2022/06/12 04:53:48;;;;;;;;;4.00;2.67;;;;;18.61;48.70;102179.56;5067221;28;45474;-62
2022/06/12 04:56:16;;;;;;;;;3.33;2.00;;;;;18.63;48.65;102175.81;5067498;28;45515;-62
2022/06/12 04:58:41;;;;;;;;;1.33;1.33;;;;;18.61;48.68;102187.66;5065437;28;46123;-62
2022/06/12 05:01:08;;;;;;;;;2.00;2.00;;;;;18.60;48.67;102169.75;5067206;28;45433;-62
2022/06/12 05:03:34;;;;;;;;;4.00;2.67;;;;;18.58;48.92;102182.47;5060107;28;45496;-62
2022/06/12 05:06:00;;;;;;;;;2.00;2.00;;;;;18.55;48.84;102175.44;5069891;28;46720;-62
2022/06/12 05:08:25;;;;;;;;;1.33;1.33;;;;;18.60;49.06;102180.53;5064667;28;45546;-62
2022/06/12 05:10:51;;;;;;;;;3.33;3.00;;;;;18.64;48.88;102171.28;5066015;28;46759;-62
2022/06/12 05:13:16;;;;;;;;;3.67;2.33;;;;;18.66;49.04;102164.84;5064263;28;46575;-60
2022/06/12 05:15:43;;;;;;;;;2.67;2.67;;;;;18.58;49.10;102163.63;5067342;28;64139;-58
2022/06/12 05:18:11;;;;;;;;;2.00;2.00;;;;;18.58;49.18;102166.31;5068755;28;45450;-58
2022/06/12 05:20:37;;;;;;;;;2.67;2.67;;;;;18.61;49.13;102158.03;5063272;28;45376;-58
2022/06/12 05:23:03;;;;;;;;;4.00;3.00;;;;;18.59;49.35;102155.44;5052638;28;45344;-58
2022/06/12 05:25:30;;;;;;;;;1.00;1.00;;;;;18.59;49.28;102162.63;5044915;28;45557;-58
2022/06/12 05:27:56;;;;;;;;;4.00;2.33;;;;;18.62;49.42;102165.16;5050098;28;46999;-59
2022/06/12 05:30:25;;;;;;;;;6.00;2.67;;;;;18.66;49.30;102164.00;5054657;28;45469;-58
2022/06/12 05:32:52;;;;;;;;;5.67;3.33;;;;;18.69;49.34;102163.78;5058789;28;45353;-58
2022/06/12 05:35:18;;;;;;;;;3.33;2.00;;;;;18.73;49.17;102159.06;5056580;28;45992;-59
2022/06/12 05:37:44;;;;;;;;;3.33;3.33;;;;;18.75;48.94;102160.72;5053253;28;46330;-59
2022/06/12 05:40:14;;;;;;;;;4.00;3.00;;;;;18.79;49.30;102159.56;5055450;28;45461;-59
2022/06/12 05:42:40;;;;;;;;;1.00;1.00;;;;;18.81;48.96;102160.34;5053289;28;45651;-59
2022/06/12 05:45:15;;;;;;;;;2.00;2.00;;;;;18.93;48.97;102157.81;5037485;28;58578;-59
2022/06/12 05:47:50;;;;;;;;;4.67;2.00;;;;;19.12;48.86;102162.91;5056410;28;45875;-58
2022/06/12 05:50:17;;;;;;;;;4.00;4.00;;;;;19.20;48.77;102160.56;5060750;28;45790;-59
2022/06/12 05:52:42;;;;;;;;;2.67;2.67;;;;;19.22;48.47;102171.28;5041943;28;45802;-59
2022/06/12 05:55:08;;;;;;;;;3.00;1.67;;;;;19.21;48.11;102175.78;5056474;28;45495;-59
2022/06/12 05:57:34;;;;;;;;;3.33;2.00;;;;;19.19;48.40;102172.34;5064384;28;46775;-60
2022/06/12 05:59:59;;;;;;;;;1.67;1.67;;;;;19.21;48.56;102169.53;5056643;28;45543;-59
2022/06/12 06:02:25;;;;;;;;;2.00;2.00;;;;;19.23;48.48;102170.28;5063186;28;45980;-59
2022/06/12 06:04:50;;;;;;;;;4.00;3.00;;;;;19.24;48.47;102170.22;5061310;28;66011;-59
2022/06/12 06:07:15;;;;;;;;;6.00;2.00;;;;;19.22;48.40;102185.63;5067196;28;46033;-59
2022/06/12 06:09:41;;;;;;;;;5.33;1.33;;;;;19.21;48.23;102180.34;5057903;28;67122;-59
2022/06/12 06:12:06;;;;;;;;;2.00;1.00;;;;;19.22;47.84;102187.47;5059688;28;45246;-59
2022/06/12 06:14:32;;;;;;;;;1.67;1.00;;;;;19.27;47.71;102185.34;5058042;28;45340;-59
2022/06/12 06:16:57;;;;;;;;;3.67;3.00;;;;;19.33;47.89;102183.09;5056889;28;75308;-59
2022/06/12 06:19:23;;;;;;;;;2.67;1.67;;;;;19.39;47.79;102180.97;5060451;28;45725;-59
2022/06/12 06:21:49;;;;;;;;;8.00;1.33;;;;;19.44;47.29;102189.63;5060345;28;45355;-59
2022/06/12 06:24:14;;;;;;;;;1.00;1.00;;;;;19.43;47.25;102180.66;5060165;28;45408;-59
2022/06/12 06:26:40;;;;;;;;;1.00;1.00;;;;;19.45;47.16;102184.13;5058320;28;69480;-59
2022/06/12 06:29:06;;;;;;;;;2.00;1.00;;;;;19.46;46.93;102185.84;5058222;28;45328;-59
2022/06/12 06:31:32;;;;;;;;;5.00;2.00;;;;;19.49;47.01;102190.19;5063600;28;45386;-59
2022/06/12 06:33:57;;;;;;;;;1.67;1.33;;;;;19.55;46.72;102192.47;5040521;28;45792;-59
2022/06/12 06:36:22;;;;;;;;;2.67;1.67;;;;;19.64;47.07;102199.94;5056713;28;46038;-59
2022/06/12 06:38:50;;;;;;;;;5.00;2.00;;;;;19.77;46.43;102201.81;5059395;28;53949;-59
2022/06/12 06:41:16;;;;;;;;;1.67;1.67;;;;;19.93;45.96;102207.97;5064755;28;45654;-59
2022/06/12 06:46:25;;;;;;;;;4.00;2.00;;;;;20.31;45.53;102200.88;5056172;28;45539;-60
2022/06/12 06:48:51;;;;;;;;;2.67;2.67;;;;;20.50;45.27;102204.03;5066016;28;45352;-59
2022/06/12 06:51:16;;;;;;;;;3.67;3.00;;;;;20.67;45.04;102189.31;5057965;28;59966;-59
2022/06/12 06:53:42;;;;;;;;;2.50;2.50;;;;;20.84;44.51;102184.59;5072189;27;45703;-59
2022/06/12 06:56:07;;;;;;;;;3.00;2.00;;;;;21.02;44.18;102204.03;5064195;28;74327;-59
2022/06/12 06:58:33;;;;;;;;;3.00;1.00;;;;;21.16;44.42;102197.63;5064478;28;45478;-59
2022/06/12 07:00:59;;;;;;;;;4.00;1.25;;;;;21.37;43.82;102197.00;5064567;28;45290;-59
2022/06/12 07:03:24;;;;;;;;;2.00;2.00;;;;;21.61;43.80;102203.31;5051348;28;45475;-59
2022/06/12 07:05:51;;;;;;;;;2.00;2.00;;;;;21.86;43.70;102206.88;5060612;28;46041;-59
2022/06/12 07:08:18;;;;;;;;;4.50;2.75;;;;;22.08;42.96;102200.69;5058459;28;45465;-59
2022/06/12 07:10:44;;;;;;;;;3.67;2.00;;;;;22.27;43.03;102193.84;5058667;28;45501;-59
2022/06/12 07:13:10;;;;;;;;;2.75;2.00;;;;;22.51;41.90;102196.50;5058900;28;45324;-60
2022/06/12 07:15:36;;;;;;;;;3.25;1.25;;;;;22.76;41.84;102195.41;5056476;28;45739;-59
2022/06/12 07:18:03;;;;;;;;;2.00;2.00;;;;;23.02;41.43;102207.84;5044774;28;45270;-59
2022/06/12 07:20:33;;;;;;;;;3.25;3.00;;;;;23.20;41.56;102200.94;5043662;28;45436;-59
2022/06/12 07:22:58;;;;;;;;;1.00;1.00;;;;;23.45;40.99;102207.06;5055688;28;45284;-59
2022/06/12 07:25:24;;;;;;;;;3.75;2.00;;;;;23.76;40.70;102204.50;5058302;28;75373;-60
2022/06/12 07:27:50;;;;;;;;;5.75;3.50;;;;;24.04;40.13;102202.19;5055199;28;45473;-60
2022/06/12 07:30:20;;;;;;;;;1.50;1.50;;;;;24.35;39.78;102213.97;5052146;28;45253;-60
2022/06/12 07:32:45;;;;;;;;;1.00;1.00;;;;;24.71;39.32;102203.63;5064188;28;45630;-60
2022/06/12 07:35:11;;;;;;;;;2.00;2.00;;;;;25.00;39.27;102197.44;5056603;28;46206;-60
2022/06/12 07:37:37;;;;;;;;;2.50;2.25;;;;;25.35;37.86;102195.28;5056542;28;45447;-60
2022/06/12 07:40:06;;;;;;;;;1.75;1.75;;;;;25.66;37.46;102200.63;5058851;28;45396;-60
2022/06/12 07:42:31;;;;;;;;;1.75;0.00;;;;;26.05;37.30;102204.22;5055786;28;45746;-60
2022/06/12 07:44:56;;;;;;;;;3.00;2.00;;;;;26.50;36.47;102201.84;5056888;28;75624;-60
2022/06/12 07:47:24;;;;;;;;;1.50;1.25;;;;;27.02;36.27;102202.22;5060721;28;49444;-60
2022/06/12 07:49:49;;;;;;;;;1.00;1.00;;;;;27.61;35.56;102201.03;5064214;28;45540;-60
2022/06/12 07:52:15;;;;;;;;;1.00;1.00;;;;;28.14;34.18;102204.75;5064601;28;45467;-60
2022/06/12 07:54:40;;;;;;;;;1.25;1.25;;;;;28.68;34.10;102208.22;5060509;28;46008;-60
2022/06/12 07:57:07;;;;;;;;;1.00;0.00;;;;;29.24;32.91;102198.69;5064444;28;67566;-61
2022/06/12 07:59:32;;;;;;;;;2.75;2.00;;;;;29.76;33.12;102195.72;5047511;28;45751;-60
2022/06/12 08:01:58;;;;;;;;;1.50;1.50;;;;;30.34;31.95;102206.69;5058713;28;45569;-61
2022/06/12 08:04:23;;;;;;;;;0.00;0.00;;;;;30.88;30.61;102205.19;5065354;28;46342;-61
2022/06/12 08:06:49;;;;;;;;;0.25;0.25;;;;;31.40;29.75;102199.09;5055798;28;45328;-61
2022/06/12 08:09:14;;;;;;;;;2.75;1.00;;;;;31.93;28.87;102198.38;5064111;28;45749;-61
2022/06/12 08:11:42;;;;;;;;;0.00;0.00;;;;;32.52;28.10;102208.66;5060600;28;45322;-61
2022/06/12 08:14:08;;;;;;;;;4.75;2.75;;;;;33.04;27.85;102203.25;5068225;28;46203;-61
2022/06/12 08:16:34;;;;;;;;;0.25;0.25;;;;;33.38;26.88;102194.34;5071845;28;45621;-61
2022/06/12 08:19:00;;;;;;;;;2.75;0.75;;;;;33.40;26.38;102208.78;5064668;28;45693;-61
2022/06/12 08:21:26;;;;;;;;;1.75;1.50;;;;;33.62;26.56;102203.28;5057706;28;45415;-61
2022/06/12 08:23:55;;;;;;;;;3.75;1.75;;;;;33.99;25.84;102192.16;5059283;28;46272;-55
2022/06/12 08:26:29;;;;;;;;;0.25;0.25;;;;;34.25;24.62;102195.13;5060600;28;45355;-55
2022/06/12 08:29:02;;;;;;;;;0.00;0.00;;;;;34.42;25.65;102194.88;5059711;28;45258;-55
2022/06/12 08:31:35;;;;;;;;;1.00;0.00;;;;;34.43;23.95;102189.13;5062245;28;45537;-57
2022/06/12 08:34:04;;;;;;;;;3.50;1.00;;;;;34.30;22.19;102187.09;5070934;28;46227;-57
2022/06/12 08:36:30;;;;;;;;;2.00;1.00;;;;;34.07;22.31;102181.84;5045331;28;45675;-57
2022/06/12 08:38:56;;;;;;;;;0.50;0.50;;;;;33.68;22.90;102188.69;5055431;28;45718;-57
2022/06/12 08:41:33;;;;;;;;;0.75;0.75;;;;;33.47;22.28;102187.66;5062977;28;63936;-56
2022/06/12 08:44:05;;;;;;;;;1.00;1.00;;;;;33.39;22.86;102184.16;5054540;28;45989;-56
2022/06/12 08:46:38;;;;;;;;;0.75;0.00;;;;;33.55;23.99;102178.41;5064388;28;45437;-57
2022/06/12 08:49:19;;;;;;;;;1.00;1.00;;;;;33.89;21.78;102175.97;5060930;28;45500;-57
2022/06/12 08:51:48;;;;;;;;;1.75;0.25;;;;;34.08;23.13;102171.66;5041951;28;45378;-57
2022/06/12 08:54:27;;;;;;;;;0.00;0.00;;;;;34.20;22.47;102170.06;5048422;28;46322;-56
2022/06/12 08:57:04;;;;;;;;;2.50;1.00;;;;;34.56;22.09;102174.56;5060582;28;45422;-56
2022/06/12 08:59:30;;;;;;;;;2.00;0.50;;;;;34.72;22.99;102176.13;5058348;28;45399;-57
2022/06/12 09:01:55;;;;;;;;;0.50;0.50;;;;;34.98;23.22;102168.16;5060345;28;45355;-56
2022/06/12 09:04:23;;;;;;;;;0.50;0.25;;;;;35.32;21.51;102169.97;5061688;28;46175;-57
2022/06/12 09:07:13;;;;;;;;;0.25;0.25;;;;;35.59;22.30;102162.59;5045717;28;45394;-58
2022/06/12 09:09:46;;;;;;;;;3.00;0.75;;;;;35.84;22.24;102172.16;5064848;28;45517;-57
2022/06/12 09:12:24;;;;;;;;;0.75;0.75;;;;;36.13;20.35;102167.25;5067045;28;45548;-56
2022/06/12 09:15:11;;;;;;;;;2.00;1.00;;;;;36.35;20.65;102168.75;5047549;28;45708;-57
2022/06/12 09:17:46;;;;;;;;;0.50;0.00;;;;;36.59;19.47;102171.88;5063431;28;45487;-57
2022/06/12 09:20:29;;;;;;;;;0.75;0.75;;;;;36.69;18.81;102165.88;5058849;28;45566;-58
2022/06/12 09:23:25;;;;;;;;;0.75;0.75;;;;;36.83;19.45;102170.34;5052295;28;45492;-57
2022/06/12 09:26:08;;;;;;;;;0.25;0.00;;;;;37.03;19.38;102167.44;5052381;28;46202;-57
2022/06/12 09:28:43;;;;;;;;;0.50;0.50;;;;;37.25;19.97;102162.41;5040509;28;45447;-57
2022/06/12 09:31:19;;;;;;;;;0.00;0.00;;;;;37.48;18.74;102169.31;5044987;28;45486;-57
2022/06/12 09:33:54;;;;;;;;;0.00;0.00;;;;;37.39;19.15;102170.66;5049334;28;45378;-58
2022/06/12 09:36:33;;;;;;;;;0.00;0.00;;;;;37.23;19.42;102160.94;5057271;28;45409;-58
2022/06/12 09:39:19;;;;;;;;;0.50;0.50;;;;;37.16;18.22;102163.75;5060223;28;45576;-57
2022/06/12 09:41:57;;;;;;;;;4.00;2.00;;;;;37.31;18.91;102168.13;5059676;28;46263;-57
2022/06/12 09:44:32;;;;;;;;;0.00;0.00;;;;;37.56;19.85;102160.72;5071689;27;45249;-57
2022/06/12 09:47:15;;;;;;;;;1.25;0.00;;;;;37.70;19.32;102163.38;5059590;28;47131;-57
2022/06/12 09:49:46;;;;;;;;;1.75;0.25;;;;;37.46;19.29;102159.50;5043267;28;46742;-57
2022/06/12 09:52:29;;;;;;;;;1.75;1.75;;;;;37.40;19.34;102167.69;5064331;28;45778;-57
2022/06/12 09:55:00;;;;;;;;;0.50;0.50;;;;;37.53;18.40;102157.53;5041218;28;45480;-58
2022/06/12 09:57:25;;;;;;;;;0.00;0.00;;;;;37.51;19.54;102163.31;5041184;28;45366;-58
2022/06/12 10:00:03;;;;;;;;;2.00;0.50;;;;;37.15;19.20;102172.28;5064990;28;45385;-57
2022/06/12 10:02:36;;;;;;;;;1.50;0.00;;;;;36.38;19.26;102175.78;5050275;28;45411;-57
2022/06/12 10:05:25;;;;;;;;;0.50;0.50;;;;;35.60;20.23;102166.19;5064681;28;45481;-57
2022/06/12 10:08:14;;;;;;;;;0.00;0.00;;;;;34.97;19.51;102167.31;5052045;28;46246;-57
2022/06/12 10:10:47;;;;;;;;;1.25;0.75;;;;;34.77;19.51;102169.97;5062377;28;45703;-57
2022/06/12 10:13:23;;;;;;;;;3.25;0.25;;;;;34.72;19.95;102167.81;5060046;28;45491;-57
2022/06/12 10:15:55;;;;;;;;;0.25;0.25;;;;;34.97;20.21;102164.56;5060856;28;45648;-57
2022/06/12 10:18:42;;;;;;;;;1.50;0.25;;;;;35.30;20.94;102158.25;5067071;28;45566;-57
2022/06/12 10:21:11;;;;;;;;;1.50;0.00;;;;;35.51;19.90;102160.00;5053446;28;45488;-56
2022/06/12 10:23:36;;;;;;;;;2.00;1.75;;;;;35.50;20.54;102158.34;5061666;28;45292;-57
2022/06/12 10:26:12;;;;;;;;;3.75;2.75;;;;;35.42;20.26;102153.84;5058113;28;69477;-57
2022/06/12 10:28:38;;;;;;;;;3.00;1.25;;;;;35.46;21.03;102150.66;5077430;27;46482;-57
2022/06/12 10:31:06;;;;;;;;;2.75;2.75;;;;;35.36;21.41;102149.16;5049420;28;46416;-57
2022/06/12 10:33:50;;;;;;;;;2.50;1.25;;;;;35.15;21.61;102150.16;5064879;28;45889;-57
2022/06/12 10:36:18;;;;;;;;;5.00;1.75;;;;;35.15;21.13;102152.06;5054282;28;45352;-57
2022/06/12 10:38:43;;;;;;;;;2.50;2.50;;;;;35.13;21.01;102149.50;5067643;28;46396;-57
2022/06/12 10:41:24;;;;;;;;;3.75;3.25;;;;;35.27;21.70;102139.34;5051097;28;66511;-57
2022/06/12 10:43:51;;;;;;;;;1.75;1.75;;;;;35.41;21.41;102137.44;5042682;28;45426;-57
2022/06/12 10:46:27;;;;;;;;;1.25;1.25;;;;;35.48;20.80;102127.25;5060923;28;45392;-57
2022/06/12 10:49:00;;;;;;;;;3.25;2.00;;;;;35.57;20.37;102130.69;5054688;28;47104;-57
2022/06/12 10:51:40;;;;;;;;;2.00;2.00;;;;;35.47;21.18;102130.25;5055056;28;45740;-57
2022/06/12 10:54:28;;;;;;;;;1.75;1.25;;;;;35.48;20.29;102127.25;5059107;28;45424;-57
2022/06/12 10:57:10;;;;;;;;;2.00;2.00;;;;;35.44;20.26;102124.06;5053082;28;68452;-57
2022/06/12 11:00:00;;;;;;;;;2.00;1.25;;;;;35.41;20.66;102120.84;5042196;28;45445;-57
2022/06/12 11:02:55;;;;;;;;;3.50;2.00;;;;;35.22;20.63;102117.00;5058781;28;45646;-57
2022/06/12 11:05:58;;;;;;;;;0.75;0.50;;;;;34.88;20.92;102116.06;5061980;28;45593;-57
2022/06/12 11:08:58;;;;;;;;;4.25;2.00;;;;;34.55;21.07;102111.22;5038581;28;45391;-57
2022/06/12 11:11:54;;;;;;;;;3.25;1.25;;;;;34.21;21.75;102116.56;5052932;28;45663;-57
2022/06/12 11:14:44;;;;;;;;;2.00;2.00;;;;;33.59;22.08;102099.72;5066325;28;45561;-59
2022/06/12 11:17:40;;;;;;;;;0.00;0.00;;;;;32.89;22.48;102099.44;5045116;28;45551;-59
2022/06/12 11:20:26;;;;;;;;;1.00;1.00;;;;;32.39;22.02;102101.97;5063029;28;45511;-59
2022/06/12 11:23:16;;;;;;;;;1.50;1.50;;;;;32.02;22.30;102089.13;5067200;28;45788;-59
2022/06/12 11:25:57;;;;;;;;;1.75;1.75;;;;;31.71;22.85;102090.13;5069748;28;45415;-59
2022/06/12 11:28:25;;;;;;;;;1.00;1.00;;;;;31.34;22.95;102089.88;5051844;28;45378;-60
2022/06/12 11:30:55;;;;;;;;;0.25;0.25;;;;;31.05;23.40;102080.50;5064846;28;45695;-60
2022/06/12 11:33:50;;;;;;;;;4.00;2.00;;;;;30.67;23.68;102077.59;5044370;28;46588;-60
2022/06/12 11:36:21;;;;;;;;;3.00;1.50;;;;;30.36;23.74;102083.88;5035544;28;45537;-59
2022/06/12 11:39:12;;;;;;;;;1.75;1.75;;;;;30.08;24.36;102078.84;5066464;28;45446;-59
2022/06/12 11:41:50;;;;;;;;;3.50;2.75;;;;;29.74;24.42;102070.81;5051682;28;45395;-59
2022/06/12 11:44:27;;;;;;;;;2.50;2.50;;;;;29.49;25.50;102065.34;5064823;28;45324;-59
2022/06/12 11:47:15;;;;;;;;;1.75;1.75;;;;;29.28;25.35;102057.66;5077644;28;45465;-59
2022/06/12 11:50:07;;;;;;;;;8.75;5.25;;;;;29.01;25.45;102046.81;5070073;28;45548;-59
2022/06/12 11:52:48;;;;;;;;;3.33;3.00;;;;;28.75;26.42;102052.41;5042505;28;45410;-59
2022/06/12 11:55:29;;;;;;;;;15.67;13.33;;;;;28.50;26.19;102052.31;5051218;28;45475;-59
2022/06/12 11:58:40;;;;;;;;;5.25;4.50;;;;;28.34;26.45;102046.75;5050091;28;45351;-59
2022/06/12 12:01:35;;;;;;;;;2.50;2.50;;;;;28.26;26.73;102038.53;5070051;28;45418;-59
2022/06/12 12:04:30;;;;;;;;;5.00;3.00;;;;;28.24;27.56;102049.63;5046756;28;45264;-59